createdAt,value
2023-05-15T09:57:38.327Z,759.38
2023-05-15T09:58:38.285Z,759.38
2023-05-15T10:00:25.906Z,843.75
2023-05-15T10:01:25.686Z,849.38
2023-05-15T10:02:25.675Z,871.88
2023-05-15T10:03:25.654Z,900.00
2023-05-15T10:04:25.639Z,871.88
2023-05-15T10:05:41.598Z,781.88
2023-05-15T10:11:59.531Z,905.63
2023-05-15T10:12:59.492Z,950.63
2023-05-15T10:13:59.486Z,984.38
2023-05-15T10:14:59.580Z,1006.88
2023-05-15T10:15:59.521Z,1057.50
2023-05-15T10:16:59.430Z,1125.00
2023-05-15T10:17:59.489Z,1147.50
2023-05-15T10:18:59.421Z,1153.13
2023-05-15T10:19:59.423Z,1125.00
2023-05-15T10:20:59.399Z,1108.13
2023-05-15T10:21:59.353Z,1108.13
2023-05-15T10:22:59.365Z,1085.63
2023-05-15T10:24:06.899Z,1040.63
2023-05-15T10:24:59.361Z,1012.50
2023-05-15T10:25:59.295Z,939.38
2023-05-15T10:26:59.304Z,916.88
2023-05-15T10:27:59.285Z,900.00
2023-05-15T10:28:59.279Z,905.63
2023-05-15T10:29:59.264Z,916.88
2023-05-15T10:30:59.280Z,900.00
2023-05-15T10:31:59.271Z,900.00
2023-05-15T10:32:59.209Z,916.88
2023-05-15T10:33:59.173Z,916.88
2023-05-15T10:34:59.202Z,911.25
2023-05-15T10:35:59.165Z,894.38
2023-05-15T10:36:59.136Z,860.63
2023-05-15T10:37:59.120Z,866.25
2023-05-15T10:38:59.109Z,804.38
2023-05-15T10:39:59.098Z,781.88
2023-05-15T10:41:13.039Z,720.00
2023-05-15T10:41:59.077Z,703.13
2023-05-15T10:42:59.080Z,697.50
2023-05-15T10:43:59.046Z,714.38
2023-05-15T10:44:59.049Z,736.88
2023-05-15T10:45:59.002Z,691.88
2023-05-15T10:46:59.045Z,669.38
2023-05-15T10:47:59.043Z,669.38
2023-05-15T10:48:58.959Z,652.50
2023-05-15T10:49:58.942Z,708.75
2023-05-15T10:50:58.959Z,714.38
2023-05-15T10:51:58.904Z,686.25
2023-05-15T10:52:58.905Z,725.63
2023-05-15T10:53:58.879Z,753.75
2023-05-15T10:54:58.872Z,765.00
2023-05-15T10:55:58.915Z,793.13
2023-05-15T10:56:58.850Z,804.38
2023-05-15T10:57:58.826Z,781.88
2023-05-15T10:58:58.824Z,776.25
2023-05-15T10:59:58.810Z,787.50
2023-05-15T11:00:58.820Z,776.25
2023-05-15T11:01:58.779Z,759.38
2023-05-15T11:02:58.878Z,725.63
2023-05-15T11:03:58.763Z,731.25
2023-05-15T11:04:58.744Z,731.25
2023-05-15T11:05:58.720Z,708.75
2023-05-15T11:06:58.700Z,675.00
2023-05-15T11:07:58.687Z,658.13
2023-05-15T11:08:58.669Z,663.75
2023-05-15T11:09:58.649Z,669.38
2023-05-15T11:10:58.653Z,708.75
2023-05-15T11:11:58.634Z,675.00
2023-05-15T11:12:58.605Z,658.13
2023-05-15T11:13:58.588Z,658.13
2023-05-15T11:14:58.578Z,663.75
2023-05-15T11:15:58.571Z,675.00
2023-05-15T11:16:58.590Z,641.25
2023-05-15T11:17:58.562Z,646.88
2023-05-15T11:18:58.578Z,624.38
2023-05-15T11:19:58.570Z,641.25
2023-05-15T11:20:58.527Z,641.25
2023-05-15T11:21:58.495Z,641.25
2023-05-15T11:22:58.464Z,675.00
2023-05-15T11:23:58.468Z,708.75
2023-05-15T11:24:58.470Z,703.13
2023-05-15T11:25:58.443Z,658.13
2023-05-15T11:26:59.244Z,635.63
2023-05-15T11:27:58.384Z,658.13
2023-05-15T11:28:58.378Z,675.00
2023-05-15T11:29:58.385Z,646.88
2023-05-15T11:30:58.408Z,641.25
2023-05-15T11:31:58.354Z,630.00
2023-05-15T11:32:58.598Z,669.38
2023-05-15T11:33:58.303Z,669.38
2023-05-15T11:34:58.379Z,669.38
2023-05-15T11:35:58.293Z,675.00
2023-05-15T11:36:58.287Z,669.38
2023-05-15T11:37:58.264Z,669.38
2023-05-15T11:38:58.236Z,658.13
2023-05-15T11:39:58.249Z,635.63
2023-05-15T11:40:58.236Z,641.25
2023-05-15T11:41:59.299Z,663.75
2023-05-15T11:42:58.204Z,680.63
2023-05-15T11:43:58.160Z,708.75
2023-05-15T11:44:58.173Z,714.38
2023-05-15T11:45:58.221Z,708.75
2023-05-15T11:46:58.226Z,720.00
2023-05-15T11:47:58.159Z,736.88
2023-05-15T11:48:59.493Z,748.13
2023-05-15T11:49:58.102Z,753.75
2023-05-15T11:50:58.108Z,759.38
2023-05-15T11:51:58.063Z,753.75
2023-05-15T11:52:58.074Z,725.63
2023-05-15T11:53:58.027Z,725.63
2023-05-15T11:54:58.029Z,736.88
2023-05-15T11:55:58.020Z,742.50
2023-05-15T11:56:58.006Z,753.75
2023-05-15T11:57:57.971Z,765.00
2023-05-15T11:58:57.988Z,759.38
2023-05-15T11:59:57.965Z,748.13
2023-05-15T12:00:57.976Z,753.75
2023-05-15T12:01:57.943Z,731.25
2023-05-15T12:02:58.036Z,725.63
2023-05-15T12:03:58.140Z,691.88
2023-05-15T12:04:57.931Z,663.75
2023-05-15T12:06:00.000Z,669.38
2023-05-15T12:06:57.912Z,669.38
2023-05-15T12:07:57.859Z,663.75
2023-05-15T12:08:57.834Z,663.75
2023-05-15T12:09:58.654Z,680.63
2023-05-15T12:10:57.835Z,680.63
2023-05-15T12:11:57.811Z,680.63
2023-05-15T12:12:57.817Z,669.38
2023-05-15T12:13:57.761Z,680.63
2023-05-15T12:14:57.788Z,686.25
2023-05-15T12:15:57.758Z,708.75
2023-05-15T12:16:57.865Z,742.50
2023-05-15T12:17:57.771Z,765.00
2023-05-15T12:18:57.910Z,781.88
2023-05-15T12:19:57.708Z,804.38
2023-05-15T12:20:57.689Z,826.88
2023-05-15T12:21:57.682Z,849.38
2023-05-15T12:22:57.653Z,855.00
2023-05-15T12:24:06.910Z,855.00
2023-05-15T12:24:57.644Z,866.25
2023-05-15T12:25:57.613Z,849.38
2023-05-15T12:26:57.804Z,849.38
2023-05-15T12:27:57.582Z,855.00
2023-05-15T12:28:57.624Z,860.63
2023-05-15T12:29:57.587Z,843.75
2023-05-15T12:30:57.574Z,860.63
2023-05-15T12:31:57.610Z,843.75
2023-05-15T12:32:57.564Z,815.63
2023-05-15T12:33:57.545Z,793.13
2023-05-15T12:34:57.510Z,810.00
2023-05-15T12:36:01.056Z,804.38
2023-05-15T12:36:57.478Z,826.88
2023-05-15T12:37:57.478Z,810.00
2023-05-15T12:38:57.448Z,793.13
2023-05-15T12:39:57.477Z,781.88
2023-05-15T12:40:57.423Z,776.25
2023-05-15T12:41:57.428Z,770.63
2023-05-15T12:42:57.443Z,776.25
2023-05-15T12:43:57.405Z,793.13
2023-05-15T12:44:57.405Z,810.00
2023-05-15T12:45:57.441Z,832.50
2023-05-15T12:46:57.374Z,849.38
2023-05-15T12:47:57.386Z,877.50
2023-05-15T12:48:57.352Z,877.50
2023-05-15T12:49:57.331Z,871.88
2023-05-15T12:50:57.310Z,843.75
2023-05-15T12:51:57.290Z,804.38
2023-05-15T12:52:57.294Z,781.88
2023-05-15T12:53:57.266Z,776.25
2023-05-15T12:54:57.300Z,770.63
2023-05-15T12:55:57.242Z,781.88
2023-05-15T12:56:57.692Z,793.13
2023-05-15T12:57:57.245Z,776.25
2023-05-15T12:58:57.269Z,776.25
2023-05-15T12:59:57.219Z,798.75
2023-05-15T13:00:57.226Z,838.13
2023-05-15T13:01:57.297Z,883.13
2023-05-15T13:02:57.279Z,973.13
2023-05-15T13:03:57.409Z,1417.50
2023-05-15T13:04:57.204Z,2193.75
2023-05-15T13:05:57.173Z,2621.25
2023-05-15T13:06:57.177Z,2722.50
2023-05-15T13:07:57.107Z,2722.50
2023-05-15T13:08:57.102Z,2626.88
2023-05-15T13:09:57.124Z,2328.75
2023-05-15T13:10:57.130Z,2632.50
2023-05-15T13:12:47.654Z,1209.38
2023-05-15T13:13:47.579Z,2430.00
2023-05-15T13:14:47.573Z,2379.38
2023-05-15T13:15:47.596Z,2188.13
2023-05-15T13:16:47.534Z,2295.00
2023-05-15T13:17:47.521Z,2250.00
2023-05-15T13:18:47.606Z,3076.88
2023-05-15T13:19:47.502Z,3020.63
2023-05-15T13:20:47.506Z,2908.13
2023-05-15T13:21:47.461Z,2896.88
2023-05-15T13:22:47.461Z,2930.63
2023-05-15T13:23:47.452Z,2947.50
2023-05-15T13:24:47.469Z,3031.88
2023-05-15T13:25:47.460Z,3240.00
2023-05-15T13:26:47.459Z,3436.88
2023-05-15T13:27:47.421Z,3285.00
2023-05-15T13:28:47.460Z,1091.25
2023-05-15T13:29:47.394Z,1096.88
2023-05-15T13:30:47.413Z,3217.50
2023-05-15T13:31:47.392Z,3420.00
2023-05-15T13:32:47.420Z,3577.50
2023-05-15T13:33:47.339Z,3442.50
2023-05-15T13:34:47.343Z,3099.38
2023-05-15T13:35:47.362Z,3037.50
2023-05-15T13:36:47.343Z,2919.38
2023-05-15T13:37:47.331Z,2790.00
2023-05-15T13:38:47.336Z,2593.13
2023-05-15T13:39:47.319Z,2548.13
2023-05-15T13:40:47.308Z,2497.50
2023-05-15T13:41:47.289Z,2407.50
2023-05-15T13:42:47.266Z,2379.38
2023-05-15T13:43:47.265Z,2328.75
2023-05-15T13:44:47.274Z,2176.88
2023-05-15T13:45:47.262Z,2227.50
2023-05-15T13:46:47.260Z,2255.63
2023-05-15T13:47:47.262Z,2261.25
2023-05-15T13:48:47.247Z,2115.00
2023-05-15T13:49:47.213Z,2143.13
2023-05-15T13:50:47.256Z,2148.75
2023-05-15T13:51:47.178Z,2221.88
2023-05-15T13:52:47.186Z,995.63
2023-05-15T13:53:47.158Z,2047.50
2023-05-15T13:54:47.159Z,2238.75
2023-05-15T13:57:20.793Z,1580.63
2023-05-15T13:58:20.754Z,2261.25
2023-05-15T13:59:20.764Z,2396.25
2023-05-15T14:00:20.725Z,2525.63
2023-05-15T14:01:20.784Z,2587.50
2023-05-15T14:02:20.725Z,2649.38
2023-05-15T14:03:20.848Z,2902.50
2023-05-15T14:04:20.791Z,3105.00
2023-05-15T14:09:18.115Z,922.50
2023-05-15T14:10:18.107Z,2593.13
2023-05-15T14:11:18.112Z,2925.00
2023-05-15T14:13:48.709Z,871.88
2023-05-15T14:18:09.875Z,2655.00
2023-05-15T14:19:09.880Z,933.75
2023-05-15T14:20:48.916Z,2171.25
2023-05-15T14:21:48.879Z,2986.88
2023-05-15T14:22:48.883Z,1057.50
2023-05-15T14:23:48.848Z,967.50
2023-05-15T14:24:48.861Z,888.75
2023-05-15T14:26:01.727Z,939.38
2023-05-15T14:27:43.409Z,905.63
2023-05-15T14:30:32.230Z,2778.75
2023-05-15T14:31:32.204Z,2795.63
2023-05-15T14:32:32.202Z,2733.75
2023-05-15T14:33:32.206Z,2739.38
2023-05-15T14:38:40.252Z,2790.00
2023-05-15T14:39:40.231Z,2773.13
2023-05-15T14:40:40.229Z,2514.38
2023-05-15T14:41:40.231Z,1980.00
2023-05-15T14:42:40.198Z,1794.38
2023-05-15T14:43:40.186Z,888.75
2023-05-15T14:44:40.170Z,2430.00
2023-05-15T14:45:40.164Z,2497.50
2023-05-15T14:46:40.296Z,2570.63
2023-05-15T14:47:40.157Z,2604.38
2023-05-15T14:48:40.146Z,2778.75
2023-05-15T14:49:40.143Z,2823.75
2023-05-15T14:50:40.130Z,2790.00
2023-05-15T14:51:40.122Z,2896.88
2023-05-15T14:52:40.095Z,2975.63
2023-05-15T14:53:40.111Z,2936.25
2023-05-15T14:54:40.097Z,3009.38
2023-05-15T14:55:40.108Z,2919.38
2023-05-15T14:56:40.065Z,2851.88
2023-05-15T14:57:40.055Z,2778.75
2023-05-15T14:58:40.057Z,2649.38
2023-05-15T14:59:40.047Z,2480.63
2023-05-15T15:00:40.023Z,2193.75
2023-05-15T15:01:40.327Z,1957.50
2023-05-15T15:02:40.033Z,1665.00
2023-05-15T15:03:40.124Z,1586.25
2023-05-15T15:04:39.992Z,1681.88
2023-05-15T15:05:40.014Z,1704.38
2023-05-15T15:06:39.991Z,1811.25
2023-05-15T15:07:39.980Z,1822.50
2023-05-15T15:08:39.976Z,1878.75
2023-05-15T15:09:39.975Z,1878.75
2023-05-15T15:10:39.977Z,2120.63
2023-05-15T15:11:39.957Z,2441.25
2023-05-15T15:12:39.962Z,2548.13
2023-05-15T15:13:39.946Z,2666.25
2023-05-15T15:14:39.913Z,2688.75
2023-05-15T15:15:39.914Z,2311.88
2023-05-15T15:18:15.902Z,2446.88
2023-05-15T15:19:18.969Z,2671.88
2023-05-15T15:20:15.880Z,2823.75
2023-05-15T15:21:15.923Z,2795.63
2023-05-15T15:22:15.952Z,1203.75
2023-05-15T15:23:15.910Z,2593.13
2023-05-15T15:24:15.878Z,2070.00
2023-05-15T15:41:34.496Z,1220.63
2023-05-15T15:47:05.974Z,894.38
2023-05-15T15:48:05.986Z,984.38
2023-05-15T15:50:12.760Z,1254.38
2023-05-15T15:51:12.776Z,1046.25
2023-05-15T15:52:12.731Z,1192.50
2023-05-15T16:00:27.454Z,1890.00
2023-05-15T16:01:27.415Z,1957.50
2023-05-15T16:02:27.364Z,1940.63
2023-05-15T16:05:29.638Z,1816.88
2023-05-15T16:09:56.965Z,1777.50
2023-05-15T16:10:49.178Z,1822.50
2023-05-15T16:11:49.136Z,1800.00
2023-05-15T16:13:42.045Z,1535.63
2023-05-15T16:20:58.485Z,1693.13
2023-05-15T16:21:58.371Z,1648.13
2023-05-15T16:22:58.358Z,1603.13
2023-05-15T16:27:47.036Z,1693.13
2023-05-15T16:28:46.980Z,1715.63
2023-05-15T16:29:46.997Z,1715.63
2023-05-15T16:30:49.260Z,1681.88
2023-05-15T16:31:47.111Z,1620.00
2023-05-15T16:33:43.725Z,1687.50
2023-05-15T16:34:43.733Z,1693.13
2023-05-15T16:35:43.717Z,1665.00
2023-05-15T16:36:43.728Z,1535.63
2023-05-15T16:37:43.675Z,1608.75
2023-05-15T16:38:43.675Z,1704.38
2023-05-15T16:39:43.662Z,1451.25
2023-05-15T16:40:43.652Z,1597.50
2023-05-15T16:41:43.648Z,1591.88
2023-05-15T16:43:10.427Z,1490.63
2023-05-15T16:44:10.399Z,1552.50
2023-05-15T16:45:10.382Z,1586.25
2023-05-15T16:46:10.458Z,1507.50
2023-05-15T16:47:10.438Z,1518.75
2023-05-15T16:48:10.424Z,1563.75
2023-05-15T16:49:10.362Z,1372.50
2023-05-15T17:02:08.564Z,1147.50
2023-05-15T17:04:02.077Z,900.00
2023-05-15T17:05:02.011Z,725.63
2023-05-15T17:06:01.988Z,781.88
2023-05-15T17:15:02.669Z,1040.63
